sensor_id;sensor_type;location;lat;lon;timestamp;P1;durP1;ratioP1;P2;durP2;ratioP2
23608;SDS011;11982;50.810;4.442;2023-06-14T00:00:51;14.45;;;9.50;;
23608;SDS011;11982;50.810;4.442;2023-06-14T00:03:17;12.73;;;8.45;;
23608;SDS011;11982;50.810;4.442;2023-06-14T00:05:44;12.18;;;8.65;;
23608;SDS011;11982;50.810;4.442;2023-06-14T00:08:11;13.38;;;9.10;;
23608;SDS011;11982;50.810;4.442;2023-06-14T00:10:37;13.30;;;8.60;;
23608;SDS011;11982;50.810;4.442;2023-06-14T00:13:04;9.68;;;8.23;;
23608;SDS011;11982;50.810;4.442;2023-06-14T00:15:32;13.77;;;8.55;;
23608;SDS011;11982;50.810;4.442;2023-06-14T00:17:58;11.68;;;8.85;;
23608;SDS011;11982;50.810;4.442;2023-06-14T00:20:26;12.55;;;9.18;;
23608;SDS011;11982;50.810;4.442;2023-06-14T00:22:52;11.93;;;8.00;;
23608;SDS011;11982;50.810;4.442;2023-06-14T00:25:20;11.32;;;8.82;;
23608;SDS011;11982;50.810;4.442;2023-06-14T00:27:47;12.73;;;8.63;;
23608;SDS011;11982;50.810;4.442;2023-06-14T00:30:13;14.70;;;8.88;;
23608;SDS011;11982;50.810;4.442;2023-06-14T00:32:39;12.73;;;9.48;;
23608;SDS011;11982;50.810;4.442;2023-06-14T00:35:04;14.00;;;9.35;;
23608;SDS011;11982;50.810;4.442;2023-06-14T00:37:32;12.60;;;8.77;;
23608;SDS011;11982;50.810;4.442;2023-06-14T00:39:58;12.20;;;9.48;;
23608;SDS011;11982;50.810;4.442;2023-06-14T00:42:27;14.27;;;9.50;;
23608;SDS011;11982;50.810;4.442;2023-06-14T00:44:53;13.43;;;8.77;;
23608;SDS011;11982;50.810;4.442;2023-06-14T00:47:19;14.20;;;9.52;;
23608;SDS011;11982;50.810;4.442;2023-06-14T00:49:46;11.40;;;9.43;;
23608;SDS011;11982;50.810;4.442;2023-06-14T00:52:13;13.30;;;9.00;;
23608;SDS011;11982;50.810;4.442;2023-06-14T00:54:40;12.25;;;8.48;;
23608;SDS011;11982;50.810;4.442;2023-06-14T00:57:09;11.38;;;9.00;;
23608;SDS011;11982;50.810;4.442;2023-06-14T00:59:38;16.63;;;10.52;;
23608;SDS011;11982;50.810;4.442;2023-06-14T01:02:09;13.45;;;9.38;;
23608;SDS011;11982;50.810;4.442;2023-06-14T01:04:35;14.00;;;9.73;;
23608;SDS011;11982;50.810;4.442;2023-06-14T01:07:08;11.57;;;9.48;;
23608;SDS011;11982;50.810;4.442;2023-06-14T01:12:39;14.27;;;10.40;;
23608;SDS011;11982;50.810;4.442;2023-06-14T01:15:16;14.25;;;9.30;;
23608;SDS011;11982;50.810;4.442;2023-06-14T01:17:42;11.85;;;9.73;;
23608;SDS011;11982;50.810;4.442;2023-06-14T01:20:13;15.05;;;9.32;;
23608;SDS011;11982;50.810;4.442;2023-06-14T01:22:51;16.48;;;10.55;;
23608;SDS011;11982;50.810;4.442;2023-06-14T01:25:21;12.07;;;9.38;;
23608;SDS011;11982;50.810;4.442;2023-06-14T01:27:58;11.15;;;9.70;;
23608;SDS011;11982;50.810;4.442;2023-06-14T01:30:27;13.98;;;10.25;;
23608;SDS011;11982;50.810;4.442;2023-06-14T01:32:55;10.88;;;9.32;;
23608;SDS011;11982;50.810;4.442;2023-06-14T01:35:22;13.05;;;10.02;;
23608;SDS011;11982;50.810;4.442;2023-06-14T01:37:48;14.20;;;10.15;;
23608;SDS011;11982;50.810;4.442;2023-06-14T01:40:15;14.65;;;10.55;;
23608;SDS011;11982;50.810;4.442;2023-06-14T01:42:41;15.18;;;10.27;;
23608;SDS011;11982;50.810;4.442;2023-06-14T01:45:08;13.98;;;9.68;;
23608;SDS011;11982;50.810;4.442;2023-06-14T01:47:35;16.58;;;10.52;;
23608;SDS011;11982;50.810;4.442;2023-06-14T01:50:03;15.25;;;11.25;;
23608;SDS011;11982;50.810;4.442;2023-06-14T01:52:33;10.80;;;9.60;;
23608;SDS011;11982;50.810;4.442;2023-06-14T01:54:59;13.07;;;10.00;;
23608;SDS011;11982;50.810;4.442;2023-06-14T01:57:27;11.55;;;9.85;;
23608;SDS011;11982;50.810;4.442;2023-06-14T01:59:54;16.73;;;10.65;;
23608;SDS011;11982;50.810;4.442;2023-06-14T02:02:19;12.55;;;10.48;;
23608;SDS011;11982;50.810;4.442;2023-06-14T02:04:45;12.90;;;10.80;;
23608;SDS011;11982;50.810;4.442;2023-06-14T02:07:12;15.15;;;10.65;;
23608;SDS011;11982;50.810;4.442;2023-06-14T02:09:39;15.07;;;10.60;;
23608;SDS011;11982;50.810;4.442;2023-06-14T02:12:08;13.90;;;10.18;;
23608;SDS011;11982;50.810;4.442;2023-06-14T02:14:35;15.30;;;10.48;;
23608;SDS011;11982;50.810;4.442;2023-06-14T02:17:01;15.20;;;10.20;;
23608;SDS011;11982;50.810;4.442;2023-06-14T02:19:27;14.02;;;10.70;;
23608;SDS011;11982;50.810;4.442;2023-06-14T02:21:52;16.67;;;10.25;;
23608;SDS011;11982;50.810;4.442;2023-06-14T02:24:18;19.42;;;11.82;;
23608;SDS011;11982;50.810;4.442;2023-06-14T02:26:44;15.82;;;10.82;;
23608;SDS011;11982;50.810;4.442;2023-06-14T02:29:09;12.00;;;10.45;;
23608;SDS011;11982;50.810;4.442;2023-06-14T02:31:37;14.70;;;10.73;;
23608;SDS011;11982;50.810;4.442;2023-06-14T02:34:03;14.77;;;11.43;;
23608;SDS011;11982;50.810;4.442;2023-06-14T02:36:29;16.42;;;10.20;;
23608;SDS011;11982;50.810;4.442;2023-06-14T02:38:55;14.05;;;10.48;;
23608;SDS011;11982;50.810;4.442;2023-06-14T02:41:23;19.55;;;11.20;;
23608;SDS011;11982;50.810;4.442;2023-06-14T02:43:49;13.13;;;10.32;;
23608;SDS011;11982;50.810;4.442;2023-06-14T02:46:15;12.80;;;10.50;;
23608;SDS011;11982;50.810;4.442;2023-06-14T02:48:40;15.38;;;10.43;;
23608;SDS011;11982;50.810;4.442;2023-06-14T02:51:06;14.73;;;10.70;;
23608;SDS011;11982;50.810;4.442;2023-06-14T02:53:33;14.18;;;10.95;;
23608;SDS011;11982;50.810;4.442;2023-06-14T02:55:59;14.93;;;11.25;;
23608;SDS011;11982;50.810;4.442;2023-06-14T02:58:26;14.88;;;10.52;;
23608;SDS011;11982;50.810;4.442;2023-06-14T03:00:52;13.48;;;11.23;;
23608;SDS011;11982;50.810;4.442;2023-06-14T03:03:18;12.43;;;11.13;;
23608;SDS011;11982;50.810;4.442;2023-06-14T03:05:45;15.32;;;11.20;;
23608;SDS011;11982;50.810;4.442;2023-06-14T03:08:13;13.80;;;11.10;;
23608;SDS011;11982;50.810;4.442;2023-06-14T03:10:45;16.30;;;11.40;;
23608;SDS011;11982;50.810;4.442;2023-06-14T03:13:11;14.25;;;11.30;;
23608;SDS011;11982;50.810;4.442;2023-06-14T03:15:38;15.15;;;11.68;;
23608;SDS011;11982;50.810;4.442;2023-06-14T03:18:06;15.63;;;11.27;;
23608;SDS011;11982;50.810;4.442;2023-06-14T03:20:33;14.48;;;11.52;;
23608;SDS011;11982;50.810;4.442;2023-06-14T03:23:02;14.30;;;10.85;;
23608;SDS011;11982;50.810;4.442;2023-06-14T03:25:28;13.95;;;11.02;;
23608;SDS011;11982;50.810;4.442;2023-06-14T03:28:00;14.35;;;11.60;;
23608;SDS011;11982;50.810;4.442;2023-06-14T03:30:30;14.75;;;10.93;;
23608;SDS011;11982;50.810;4.442;2023-06-14T03:32:56;14.27;;;10.95;;
23608;SDS011;11982;50.810;4.442;2023-06-14T03:35:23;14.95;;;11.52;;
23608;SDS011;11982;50.810;4.442;2023-06-14T03:37:49;18.98;;;11.63;;
23608;SDS011;11982;50.810;4.442;2023-06-14T03:40:15;15.07;;;11.75;;
23608;SDS011;11982;50.810;4.442;2023-06-14T03:42:43;14.88;;;11.73;;
23608;SDS011;11982;50.810;4.442;2023-06-14T03:45:09;14.95;;;12.13;;
23608;SDS011;11982;50.810;4.442;2023-06-14T03:47:35;14.05;;;11.30;;
23608;SDS011;11982;50.810;4.442;2023-06-14T03:50:01;16.45;;;11.50;;
23608;SDS011;11982;50.810;4.442;2023-06-14T03:52:28;14.52;;;12.45;;
23608;SDS011;11982;50.810;4.442;2023-06-14T03:54:54;13.93;;;11.50;;
23608;SDS011;11982;50.810;4.442;2023-06-14T03:57:20;21.95;;;11.90;;
23608;SDS011;11982;50.810;4.442;2023-06-14T03:59:46;12.93;;;11.40;;
23608;SDS011;11982;50.810;4.442;2023-06-14T04:02:12;14.32;;;11.52;;
23608;SDS011;11982;50.810;4.442;2023-06-14T04:04:41;12.70;;;10.60;;
23608;SDS011;11982;50.810;4.442;2023-06-14T04:07:09;17.58;;;12.07;;
23608;SDS011;11982;50.810;4.442;2023-06-14T04:09:36;15.75;;;11.48;;
23608;SDS011;11982;50.810;4.442;2023-06-14T04:12:02;13.75;;;11.05;;
23608;SDS011;11982;50.810;4.442;2023-06-14T04:14:29;15.35;;;11.25;;
23608;SDS011;11982;50.810;4.442;2023-06-14T04:16:55;16.30;;;12.13;;
23608;SDS011;11982;50.810;4.442;2023-06-14T04:19:21;14.90;;;11.45;;
23608;SDS011;11982;50.810;4.442;2023-06-14T04:21:47;12.48;;;10.95;;
23608;SDS011;11982;50.810;4.442;2023-06-14T04:24:13;13.48;;;11.15;;
23608;SDS011;11982;50.810;4.442;2023-06-14T04:26:39;17.58;;;11.25;;
23608;SDS011;11982;50.810;4.442;2023-06-14T04:29:06;13.32;;;11.65;;
23608;SDS011;11982;50.810;4.442;2023-06-14T04:31:31;14.30;;;11.20;;
23608;SDS011;11982;50.810;4.442;2023-06-14T04:34:08;15.00;;;11.30;;
23608;SDS011;11982;50.810;4.442;2023-06-14T04:36:40;14.63;;;11.50;;
23608;SDS011;11982;50.810;4.442;2023-06-14T04:39:08;15.15;;;11.07;;
23608;SDS011;11982;50.810;4.442;2023-06-14T04:41:33;15.60;;;11.63;;
23608;SDS011;11982;50.810;4.442;2023-06-14T04:44:00;15.38;;;11.35;;
23608;SDS011;11982;50.810;4.442;2023-06-14T04:46:28;15.18;;;11.75;;
23608;SDS011;11982;50.810;4.442;2023-06-14T04:48:57;15.05;;;11.57;;
23608;SDS011;11982;50.810;4.442;2023-06-14T04:51:27;16.80;;;12.63;;
23608;SDS011;11982;50.810;4.442;2023-06-14T04:53:57;15.77;;;11.25;;
23608;SDS011;11982;50.810;4.442;2023-06-14T04:56:26;17.20;;;10.88;;
23608;SDS011;11982;50.810;4.442;2023-06-14T04:58:52;20.02;;;10.98;;
23608;SDS011;11982;50.810;4.442;2023-06-14T05:01:18;18.08;;;11.95;;
23608;SDS011;11982;50.810;4.442;2023-06-14T05:03:46;17.70;;;10.90;;
23608;SDS011;11982;50.810;4.442;2023-06-14T05:06:13;15.93;;;11.75;;
23608;SDS011;11982;50.810;4.442;2023-06-14T05:08:39;12.10;;;10.40;;
23608;SDS011;11982;50.810;4.442;2023-06-14T05:11:06;13.13;;;10.70;;
23608;SDS011;11982;50.810;4.442;2023-06-14T05:13:32;14.07;;;11.38;;
23608;SDS011;11982;50.810;4.442;2023-06-14T05:15:59;18.05;;;11.70;;
23608;SDS011;11982;50.810;4.442;2023-06-14T05:18:25;16.05;;;11.10;;
23608;SDS011;11982;50.810;4.442;2023-06-14T05:20:51;30.60;;;11.40;;
23608;SDS011;11982;50.810;4.442;2023-06-14T05:23:17;14.18;;;11.27;;
23608;SDS011;11982;50.810;4.442;2023-06-14T05:25:43;18.95;;;12.02;;
23608;SDS011;11982;50.810;4.442;2023-06-14T05:28:10;19.25;;;11.52;;
23608;SDS011;11982;50.810;4.442;2023-06-14T05:30:37;15.18;;;11.73;;
23608;SDS011;11982;50.810;4.442;2023-06-14T05:33:03;16.58;;;11.60;;
23608;SDS011;11982;50.810;4.442;2023-06-14T05:35:29;27.42;;;11.48;;
23608;SDS011;11982;50.810;4.442;2023-06-14T05:37:55;15.40;;;11.05;;
23608;SDS011;11982;50.810;4.442;2023-06-14T05:40:21;19.00;;;12.02;;
23608;SDS011;11982;50.810;4.442;2023-06-14T05:42:47;16.90;;;12.10;;
23608;SDS011;11982;50.810;4.442;2023-06-14T05:45:12;17.52;;;11.32;;
23608;SDS011;11982;50.810;4.442;2023-06-14T05:47:40;20.42;;;11.68;;
23608;SDS011;11982;50.810;4.442;2023-06-14T05:50:07;17.35;;;11.60;;
23608;SDS011;11982;50.810;4.442;2023-06-14T05:52:33;20.17;;;12.10;;
23608;SDS011;11982;50.810;4.442;2023-06-14T05:55:00;19.60;;;11.52;;
23608;SDS011;11982;50.810;4.442;2023-06-14T05:57:26;16.90;;;11.50;;
23608;SDS011;11982;50.810;4.442;2023-06-14T05:59:52;22.25;;;11.32;;
23608;SDS011;11982;50.810;4.442;2023-06-14T06:02:18;16.40;;;11.35;;
23608;SDS011;11982;50.810;4.442;2023-06-14T06:04:43;20.42;;;10.98;;
23608;SDS011;11982;50.810;4.442;2023-06-14T06:07:10;16.08;;;11.15;;
23608;SDS011;11982;50.810;4.442;2023-06-14T06:09:35;17.15;;;11.40;;
23608;SDS011;11982;50.810;4.442;2023-06-14T06:12:02;18.85;;;10.80;;
23608;SDS011;11982;50.810;4.442;2023-06-14T06:14:28;16.33;;;11.50;;
23608;SDS011;11982;50.810;4.442;2023-06-14T06:16:54;13.73;;;10.27;;
23608;SDS011;11982;50.810;4.442;2023-06-14T06:19:20;15.82;;;11.43;;
23608;SDS011;11982;50.810;4.442;2023-06-14T06:21:45;19.83;;;11.52;;
23608;SDS011;11982;50.810;4.442;2023-06-14T06:24:11;16.10;;;10.48;;
23608;SDS011;11982;50.810;4.442;2023-06-14T06:26:37;16.08;;;10.75;;
23608;SDS011;11982;50.810;4.442;2023-06-14T06:29:03;13.98;;;10.75;;
23608;SDS011;11982;50.810;4.442;2023-06-14T06:31:29;15.38;;;10.73;;
23608;SDS011;11982;50.810;4.442;2023-06-14T06:33:55;16.55;;;9.95;;
23608;SDS011;11982;50.810;4.442;2023-06-14T06:36:20;15.35;;;10.68;;
23608;SDS011;11982;50.810;4.442;2023-06-14T06:38:49;15.65;;;10.57;;
23608;SDS011;11982;50.810;4.442;2023-06-14T06:41:16;14.05;;;10.48;;
23608;SDS011;11982;50.810;4.442;2023-06-14T06:43:42;14.63;;;10.55;;
23608;SDS011;11982;50.810;4.442;2023-06-14T06:46:08;15.63;;;10.48;;
23608;SDS011;11982;50.810;4.442;2023-06-14T06:54:11;16.08;;;10.02;;
23608;SDS011;11982;50.810;4.442;2023-06-14T06:56:37;16.95;;;10.18;;
23608;SDS011;11982;50.810;4.442;2023-06-14T06:59:02;14.77;;;9.40;;
23608;SDS011;11982;50.810;4.442;2023-06-14T07:01:28;13.57;;;9.80;;
23608;SDS011;11982;50.810;4.442;2023-06-14T07:03:56;17.23;;;9.93;;
23608;SDS011;11982;50.810;4.442;2023-06-14T07:06:22;14.73;;;9.15;;
23608;SDS011;11982;50.810;4.442;2023-06-14T07:08:52;15.15;;;9.40;;
23608;SDS011;11982;50.810;4.442;2023-06-14T07:11:17;18.95;;;9.85;;
23608;SDS011;11982;50.810;4.442;2023-06-14T07:13:43;15.10;;;9.52;;
23608;SDS011;11982;50.810;4.442;2023-06-14T07:16:09;13.68;;;9.00;;
23608;SDS011;11982;50.810;4.442;2023-06-14T07:18:41;13.73;;;9.20;;
23608;SDS011;11982;50.810;4.442;2023-06-14T07:21:18;12.60;;;10.27;;
23608;SDS011;11982;50.810;4.442;2023-06-14T07:23:44;14.95;;;8.55;;
23608;SDS011;11982;50.810;4.442;2023-06-14T07:26:10;11.50;;;8.48;;
23608;SDS011;11982;50.810;4.442;2023-06-14T07:28:35;16.48;;;9.70;;
23608;SDS011;11982;50.810;4.442;2023-06-14T07:31:01;13.77;;;9.40;;
23608;SDS011;11982;50.810;4.442;2023-06-14T07:33:27;14.88;;;9.43;;
23608;SDS011;11982;50.810;4.442;2023-06-14T07:35:53;15.18;;;8.43;;
23608;SDS011;11982;50.810;4.442;2023-06-14T07:38:19;13.57;;;8.75;;
23608;SDS011;11982;50.810;4.442;2023-06-14T07:40:44;12.32;;;8.40;;
23608;SDS011;11982;50.810;4.442;2023-06-14T07:43:10;21.40;;;9.10;;
23608;SDS011;11982;50.810;4.442;2023-06-14T07:45:36;14.15;;;9.27;;
23608;SDS011;11982;50.810;4.442;2023-06-14T07:48:02;15.23;;;8.32;;
23608;SDS011;11982;50.810;4.442;2023-06-14T07:50:28;10.13;;;8.20;;
23608;SDS011;11982;50.810;4.442;2023-06-14T07:52:54;13.38;;;7.97;;
23608;SDS011;11982;50.810;4.442;2023-06-14T07:55:20;14.07;;;8.82;;
23608;SDS011;11982;50.810;4.442;2023-06-14T07:57:45;16.40;;;9.48;;
23608;SDS011;11982;50.810;4.442;2023-06-14T08:00:11;13.98;;;8.05;;
23608;SDS011;11982;50.810;4.442;2023-06-14T08:02:41;14.52;;;8.40;;
23608;SDS011;11982;50.810;4.442;2023-06-14T08:05:09;13.45;;;8.45;;
23608;SDS011;11982;50.810;4.442;2023-06-14T08:07:36;10.45;;;8.43;;
23608;SDS011;11982;50.810;4.442;2023-06-14T08:10:02;15.88;;;8.57;;
23608;SDS011;11982;50.810;4.442;2023-06-14T08:12:32;14.43;;;8.00;;
23608;SDS011;11982;50.810;4.442;2023-06-14T08:14:58;12.55;;;7.78;;
23608;SDS011;11982;50.810;4.442;2023-06-14T08:17:24;13.43;;;7.57;;
23608;SDS011;11982;50.810;4.442;2023-06-14T08:19:54;10.00;;;7.90;;
23608;SDS011;11982;50.810;4.442;2023-06-14T08:22:31;16.23;;;8.40;;
23608;SDS011;11982;50.810;4.442;2023-06-14T08:25:07;16.45;;;8.23;;
23608;SDS011;11982;50.810;4.442;2023-06-14T08:27:33;9.82;;;8.10;;
23608;SDS011;11982;50.810;4.442;2023-06-14T08:29:59;12.13;;;7.88;;
23608;SDS011;11982;50.810;4.442;2023-06-14T08:32:26;14.20;;;7.43;;
23608;SDS011;11982;50.810;4.442;2023-06-14T08:34:53;14.75;;;8.40;;
23608;SDS011;11982;50.810;4.442;2023-06-14T08:37:18;17.38;;;8.45;;
23608;SDS011;11982;50.810;4.442;2023-06-14T08:39:45;14.07;;;8.25;;
23608;SDS011;11982;50.810;4.442;2023-06-14T08:42:11;13.82;;;8.30;;
23608;SDS011;11982;50.810;4.442;2023-06-14T08:44:39;22.55;;;9.18;;
23608;SDS011;11982;50.810;4.442;2023-06-14T08:47:05;15.45;;;8.38;;
23608;SDS011;11982;50.810;4.442;2023-06-14T08:49:33;17.38;;;9.68;;
23608;SDS011;11982;50.810;4.442;2023-06-14T08:52:00;14.07;;;8.70;;
23608;SDS011;11982;50.810;4.442;2023-06-14T08:54:29;14.98;;;8.23;;
23608;SDS011;11982;50.810;4.442;2023-06-14T08:56:56;12.25;;;8.52;;
23608;SDS011;11982;50.810;4.442;2023-06-14T08:59:25;10.95;;;8.40;;
23608;SDS011;11982;50.810;4.442;2023-06-14T09:01:52;13.38;;;8.85;;
23608;SDS011;11982;50.810;4.442;2023-06-14T09:04:19;16.50;;;8.88;;
23608;SDS011;11982;50.810;4.442;2023-06-14T09:06:49;25.42;;;8.77;;
23608;SDS011;11982;50.810;4.442;2023-06-14T09:09:20;11.00;;;8.73;;
23608;SDS011;11982;50.810;4.442;2023-06-14T09:11:46;14.88;;;9.02;;
23608;SDS011;11982;50.810;4.442;2023-06-14T09:14:12;13.70;;;9.27;;
23608;SDS011;11982;50.810;4.442;2023-06-14T09:16:38;18.55;;;9.70;;
23608;SDS011;11982;50.810;4.442;2023-06-14T09:19:03;18.23;;;9.32;;
23608;SDS011;11982;50.810;4.442;2023-06-14T09:21:29;18.88;;;9.35;;
23608;SDS011;11982;50.810;4.442;2023-06-14T09:24:01;16.77;;;9.35;;
23608;SDS011;11982;50.810;4.442;2023-06-14T09:26:27;15.57;;;8.90;;
23608;SDS011;11982;50.810;4.442;2023-06-14T09:28:53;14.43;;;8.93;;
23608;SDS011;11982;50.810;4.442;2023-06-14T09:31:20;14.02;;;8.82;;
23608;SDS011;11982;50.810;4.442;2023-06-14T09:33:50;17.70;;;9.35;;
23608;SDS011;11982;50.810;4.442;2023-06-14T09:36:22;13.63;;;9.52;;
23608;SDS011;11982;50.810;4.442;2023-06-14T09:38:51;23.27;;;9.77;;
23608;SDS011;11982;50.810;4.442;2023-06-14T09:41:39;19.23;;;9.90;;
23608;SDS011;11982;50.810;4.442;2023-06-14T09:44:08;12.68;;;9.55;;
23608;SDS011;11982;50.810;4.442;2023-06-14T09:46:35;18.17;;;9.48;;
23608;SDS011;11982;50.810;4.442;2023-06-14T09:49:16;18.48;;;9.27;;
23608;SDS011;11982;50.810;4.442;2023-06-14T09:51:42;16.25;;;9.32;;
23608;SDS011;11982;50.810;4.442;2023-06-14T09:54:11;16.50;;;9.35;;
23608;SDS011;11982;50.810;4.442;2023-06-14T09:56:41;14.10;;;9.02;;
23608;SDS011;11982;50.810;4.442;2023-06-14T09:59:10;14.18;;;8.60;;
23608;SDS011;11982;50.810;4.442;2023-06-14T10:01:41;26.70;;;10.07;;
23608;SDS011;11982;50.810;4.442;2023-06-14T10:04:08;13.93;;;8.57;;
23608;SDS011;11982;50.810;4.442;2023-06-14T10:06:43;12.70;;;9.05;;
23608;SDS011;11982;50.810;4.442;2023-06-14T10:09:11;18.13;;;9.00;;
23608;SDS011;11982;50.810;4.442;2023-06-14T10:11:37;14.40;;;8.50;;
23608;SDS011;11982;50.810;4.442;2023-06-14T10:14:08;16.83;;;8.40;;
23608;SDS011;11982;50.810;4.442;2023-06-14T10:16:42;13.70;;;8.27;;
23608;SDS011;11982;50.810;4.442;2023-06-14T10:22:05;11.98;;;7.82;;
23608;SDS011;11982;50.810;4.442;2023-06-14T10:24:38;9.13;;;6.97;;
23608;SDS011;11982;50.810;4.442;2023-06-14T10:27:07;11.45;;;6.18;;
23608;SDS011;11982;50.810;4.442;2023-06-14T10:32:22;9.73;;;5.70;;
23608;SDS011;11982;50.810;4.442;2023-06-14T10:34:56;12.02;;;6.07;;
23608;SDS011;11982;50.810;4.442;2023-06-14T10:39:50;12.77;;;6.65;;
23608;SDS011;11982;50.810;4.442;2023-06-14T10:42:18;9.75;;;6.20;;
23608;SDS011;11982;50.810;4.442;2023-06-14T10:44:45;9.20;;;6.07;;
23608;SDS011;11982;50.810;4.442;2023-06-14T10:49:52;8.55;;;6.85;;
23608;SDS011;11982;50.810;4.442;2023-06-14T10:52:25;10.10;;;5.90;;
23608;SDS011;11982;50.810;4.442;2023-06-14T10:57:29;10.63;;;6.22;;
23608;SDS011;11982;50.810;4.442;2023-06-14T11:00:02;9.60;;;6.68;;
23608;SDS011;11982;50.810;4.442;2023-06-14T11:05:48;12.07;;;6.55;;
23608;SDS011;11982;50.810;4.442;2023-06-14T11:14:05;15.48;;;7.43;;
23608;SDS011;11982;50.810;4.442;2023-06-14T11:16:31;12.10;;;6.60;;
23608;SDS011;11982;50.810;4.442;2023-06-14T11:18:59;8.15;;;6.60;;
23608;SDS011;11982;50.810;4.442;2023-06-14T11:24:10;8.50;;;6.38;;
23608;SDS011;11982;50.810;4.442;2023-06-14T11:26:37;11.38;;;5.90;;
23608;SDS011;11982;50.810;4.442;2023-06-14T11:29:03;11.30;;;6.35;;
23608;SDS011;11982;50.810;4.442;2023-06-14T11:31:29;8.60;;;5.82;;
23608;SDS011;11982;50.810;4.442;2023-06-14T11:33:56;12.45;;;6.07;;
23608;SDS011;11982;50.810;4.442;2023-06-14T11:36:23;11.75;;;6.15;;
23608;SDS011;11982;50.810;4.442;2023-06-14T11:38:57;12.43;;;5.88;;
23608;SDS011;11982;50.810;4.442;2023-06-14T11:41:44;11.55;;;6.20;;
23608;SDS011;11982;50.810;4.442;2023-06-14T11:44:10;12.63;;;6.07;;
23608;SDS011;11982;50.810;4.442;2023-06-14T11:46:36;10.82;;;6.53;;
23608;SDS011;11982;50.810;4.442;2023-06-14T11:49:03;13.18;;;6.63;;
23608;SDS011;11982;50.810;4.442;2023-06-14T11:51:33;11.90;;;6.15;;
23608;SDS011;11982;50.810;4.442;2023-06-14T11:54:00;11.90;;;6.70;;
23608;SDS011;11982;50.810;4.442;2023-06-14T11:56:27;11.45;;;6.90;;
23608;SDS011;11982;50.810;4.442;2023-06-14T11:58:53;14.43;;;6.43;;
23608;SDS011;11982;50.810;4.442;2023-06-14T12:01:22;9.13;;;5.88;;
23608;SDS011;11982;50.810;4.442;2023-06-14T12:03:51;11.02;;;6.10;;
23608;SDS011;11982;50.810;4.442;2023-06-14T12:06:28;12.20;;;6.40;;
23608;SDS011;11982;50.810;4.442;2023-06-14T12:09:04;15.23;;;5.82;;
23608;SDS011;11982;50.810;4.442;2023-06-14T12:11:42;11.73;;;5.90;;
23608;SDS011;11982;50.810;4.442;2023-06-14T12:14:15;10.10;;;5.93;;
23608;SDS011;11982;50.810;4.442;2023-06-14T12:16:41;12.27;;;5.90;;
23608;SDS011;11982;50.810;4.442;2023-06-14T12:19:12;13.77;;;6.45;;
23608;SDS011;11982;50.810;4.442;2023-06-14T12:21:39;11.52;;;6.07;;
23608;SDS011;11982;50.810;4.442;2023-06-14T12:24:06;12.00;;;5.80;;
23608;SDS011;11982;50.810;4.442;2023-06-14T12:26:32;8.18;;;5.35;;
23608;SDS011;11982;50.810;4.442;2023-06-14T12:28:58;11.10;;;6.13;;
23608;SDS011;11982;50.810;4.442;2023-06-14T12:34:10;8.95;;;5.88;;
23608;SDS011;11982;50.810;4.442;2023-06-14T12:36:36;10.60;;;5.50;;
23608;SDS011;11982;50.810;4.442;2023-06-14T12:39:10;10.23;;;5.57;;
23608;SDS011;11982;50.810;4.442;2023-06-14T12:41:41;11.35;;;5.60;;
23608;SDS011;11982;50.810;4.442;2023-06-14T12:44:07;16.45;;;6.30;;
23608;SDS011;11982;50.810;4.442;2023-06-14T12:46:34;15.60;;;5.40;;
23608;SDS011;11982;50.810;4.442;2023-06-14T12:49:05;11.38;;;5.50;;
23608;SDS011;11982;50.810;4.442;2023-06-14T12:51:32;8.68;;;5.60;;
23608;SDS011;11982;50.810;4.442;2023-06-14T12:53:58;16.17;;;5.55;;
23608;SDS011;11982;50.810;4.442;2023-06-14T12:56:26;9.30;;;5.22;;
23608;SDS011;11982;50.810;4.442;2023-06-14T12:58:52;8.48;;;5.20;;
23608;SDS011;11982;50.810;4.442;2023-06-14T13:01:19;7.50;;;4.93;;
23608;SDS011;11982;50.810;4.442;2023-06-14T13:03:48;12.05;;;4.60;;
23608;SDS011;11982;50.810;4.442;2023-06-14T13:06:15;9.23;;;5.07;;
23608;SDS011;11982;50.810;4.442;2023-06-14T13:08:41;7.50;;;4.85;;
23608;SDS011;11982;50.810;4.442;2023-06-14T13:11:11;11.77;;;5.20;;
23608;SDS011;11982;50.810;4.442;2023-06-14T13:13:45;9.60;;;5.10;;
23608;SDS011;11982;50.810;4.442;2023-06-14T13:16:10;11.43;;;4.80;;
23608;SDS011;11982;50.810;4.442;2023-06-14T13:18:38;10.68;;;5.20;;
23608;SDS011;11982;50.810;4.442;2023-06-14T13:21:05;7.15;;;4.57;;
23608;SDS011;11982;50.810;4.442;2023-06-14T13:23:30;9.48;;;4.32;;
23608;SDS011;11982;50.810;4.442;2023-06-14T13:25:56;9.95;;;4.88;;
23608;SDS011;11982;50.810;4.442;2023-06-14T13:28:22;6.97;;;4.60;;
23608;SDS011;11982;50.810;4.442;2023-06-14T13:30:48;7.05;;;4.55;;
23608;SDS011;11982;50.810;4.442;2023-06-14T13:33:13;7.85;;;3.95;;
23608;SDS011;11982;50.810;4.442;2023-06-14T13:35:40;6.35;;;4.30;;
23608;SDS011;11982;50.810;4.442;2023-06-14T13:38:05;6.43;;;4.40;;
23608;SDS011;11982;50.810;4.442;2023-06-14T13:40:31;7.95;;;3.60;;
23608;SDS011;11982;50.810;4.442;2023-06-14T13:42:57;6.75;;;4.03;;
23608;SDS011;11982;50.810;4.442;2023-06-14T13:45:22;9.40;;;3.95;;
23608;SDS011;11982;50.810;4.442;2023-06-14T13:47:48;4.60;;;3.97;;
23608;SDS011;11982;50.810;4.442;2023-06-14T13:50:14;7.93;;;3.60;;
23608;SDS011;11982;50.810;4.442;2023-06-14T13:52:41;10.07;;;4.18;;
23608;SDS011;11982;50.810;4.442;2023-06-14T13:55:07;14.43;;;5.60;;
23608;SDS011;11982;50.810;4.442;2023-06-14T13:57:33;7.00;;;4.07;;
23608;SDS011;11982;50.810;4.442;2023-06-14T13:59:58;8.93;;;4.38;;
23608;SDS011;11982;50.810;4.442;2023-06-14T14:02:29;6.97;;;3.90;;
23608;SDS011;11982;50.810;4.442;2023-06-14T14:04:55;6.47;;;3.70;;
23608;SDS011;11982;50.810;4.442;2023-06-14T14:07:21;5.93;;;3.20;;
23608;SDS011;11982;50.810;4.442;2023-06-14T14:09:47;7.05;;;3.55;;
23608;SDS011;11982;50.810;4.442;2023-06-14T14:12:13;5.15;;;3.30;;
23608;SDS011;11982;50.810;4.442;2023-06-14T14:14:40;8.48;;;3.08;;
23608;SDS011;11982;50.810;4.442;2023-06-14T14:19:41;7.45;;;3.38;;
23608;SDS011;11982;50.810;4.442;2023-06-14T14:22:06;3.08;;;2.50;;
23608;SDS011;11982;50.810;4.442;2023-06-14T14:24:32;8.57;;;3.13;;
23608;SDS011;11982;50.810;4.442;2023-06-14T14:26:58;6.10;;;2.85;;
23608;SDS011;11982;50.810;4.442;2023-06-14T14:29:25;7.85;;;2.88;;
23608;SDS011;11982;50.810;4.442;2023-06-14T14:31:54;5.82;;;2.40;;
23608;SDS011;11982;50.810;4.442;2023-06-14T14:34:21;6.30;;;2.75;;
23608;SDS011;11982;50.810;4.442;2023-06-14T14:36:46;7.35;;;2.40;;
23608;SDS011;11982;50.810;4.442;2023-06-14T14:39:13;5.05;;;2.42;;
23608;SDS011;11982;50.810;4.442;2023-06-14T14:44:12;4.88;;;2.50;;
23608;SDS011;11982;50.810;4.442;2023-06-14T14:46:37;4.63;;;2.63;;
23608;SDS011;11982;50.810;4.442;2023-06-14T14:49:03;5.13;;;2.20;;
23608;SDS011;11982;50.810;4.442;2023-06-14T14:51:29;5.28;;;2.42;;
23608;SDS011;11982;50.810;4.442;2023-06-14T14:56:44;4.70;;;2.05;;
23608;SDS011;11982;50.810;4.442;2023-06-14T14:59:10;8.30;;;2.38;;
23608;SDS011;11982;50.810;4.442;2023-06-14T15:01:35;6.15;;;2.30;;
23608;SDS011;11982;50.810;4.442;2023-06-14T15:04:01;6.35;;;2.30;;
23608;SDS011;11982;50.810;4.442;2023-06-14T15:06:27;2.55;;;2.30;;
23608;SDS011;11982;50.810;4.442;2023-06-14T15:08:53;5.63;;;2.33;;
23608;SDS011;11982;50.810;4.442;2023-06-14T15:11:18;7.43;;;2.50;;
23608;SDS011;11982;50.810;4.442;2023-06-14T15:13:44;5.82;;;2.38;;
23608;SDS011;11982;50.810;4.442;2023-06-14T15:16:10;5.00;;;2.10;;